createdAt,value
2017-06-15T09:35:56.214Z,67.70
2017-06-15T09:38:23.682Z,66.80
2017-06-15T09:40:51.158Z,66.70
2017-06-15T09:43:20.606Z,67.10
2017-06-15T09:45:48.074Z,67.20
2017-06-15T09:48:15.550Z,66.90
2017-06-15T09:50:43.081Z,67.10
2017-06-15T09:53:10.594Z,66.60
2017-06-15T09:55:39.358Z,65.70
2017-06-15T09:58:06.833Z,65.70
2017-06-15T10:00:34.714Z,65.10
2017-06-15T10:03:02.214Z,65.10
2017-06-15T10:05:29.713Z,65.60
2017-06-15T10:07:57.209Z,66.10
2017-06-15T10:10:24.703Z,65.90
2017-06-15T10:12:52.222Z,65.70
2017-06-15T10:15:20.634Z,65.30
2017-06-15T10:17:48.118Z,64.70
2017-06-15T10:20:15.618Z,65.70
2017-06-15T10:22:43.094Z,65.40
2017-06-15T10:25:10.565Z,64.80
2017-06-15T10:27:38.069Z,64.90
2017-06-15T10:30:07.550Z,63.90
2017-06-15T10:32:35.419Z,64.00
2017-06-15T10:35:03.291Z,64.30
2017-06-15T10:37:30.804Z,64.40
2017-06-15T10:39:58.273Z,63.70
2017-06-15T10:42:26.646Z,64.60
2017-06-15T10:44:54.198Z,64.30
2017-06-15T10:47:21.670Z,63.10
2017-06-15T10:49:49.151Z,64.10
2017-06-15T10:52:17.071Z,63.80
2017-06-15T10:54:44.556Z,63.80
2017-06-15T10:57:12.055Z,64.00
2017-06-15T10:59:39.558Z,63.60
2017-06-15T11:02:07.034Z,62.90
2017-06-15T11:04:34.536Z,63.00
2017-06-15T11:07:02.039Z,62.10
2017-06-15T11:09:29.552Z,63.60
2017-06-15T11:11:57.054Z,62.40
2017-06-15T11:14:24.562Z,62.30
2017-06-15T11:16:52.094Z,61.90
2017-06-15T11:19:19.974Z,62.10
2017-06-15T11:21:47.465Z,62.10
2017-06-15T11:24:14.939Z,62.80
2017-06-15T11:26:42.451Z,62.20
2017-06-15T11:29:10.883Z,62.20
2017-06-15T11:31:38.365Z,62.10
2017-06-15T11:34:06.253Z,61.80
2017-06-15T11:36:34.666Z,61.80
2017-06-15T11:39:02.174Z,61.60
2017-06-15T11:41:29.658Z,61.40
2017-06-15T11:43:58.158Z,61.50
2017-06-15T11:46:25.659Z,62.20
2017-06-15T11:48:54.074Z,62.10
2017-06-15T11:51:22.382Z,60.60
2017-06-15T11:53:49.942Z,61.00
2017-06-15T11:56:17.982Z,60.60
2017-06-15T11:58:45.482Z,61.50
2017-06-15T12:01:12.972Z,61.30
2017-06-15T12:03:41.478Z,61.30
2017-06-15T12:06:08.957Z,59.80
2017-06-15T12:08:36.449Z,60.80
2017-06-15T12:11:03.950Z,59.30
2017-06-15T12:13:31.435Z,58.90
2017-06-15T12:16:00.849Z,57.90
2017-06-15T12:18:28.322Z,58.20
2017-06-15T12:20:55.839Z,58.30
2017-06-15T12:23:23.306Z,59.40
2017-06-15T12:25:50.778Z,58.30
2017-06-15T12:28:18.293Z,58.40
2017-06-15T12:30:46.689Z,58.10
2017-06-15T12:33:14.202Z,58.20
2017-06-15T12:35:41.715Z,57.80
2017-06-15T12:38:09.206Z,57.60
2017-06-15T12:40:37.103Z,56.90
2017-06-15T12:43:04.586Z,56.90
2017-06-15T12:45:32.099Z,57.20
2017-06-15T12:47:59.577Z,56.70
2017-06-15T12:50:27.998Z,56.90
2017-06-15T12:52:55.496Z,56.60
2017-06-15T12:55:22.978Z,58.30
2017-06-15T12:57:50.482Z,57.30
2017-06-15T13:00:17.965Z,55.90
2017-06-15T13:02:45.482Z,55.70
2017-06-15T13:05:12.967Z,56.70
2017-06-15T13:07:40.855Z,56.90
2017-06-15T13:10:08.358Z,56.90
2017-06-15T13:12:36.810Z,56.70
2017-06-15T13:15:04.367Z,58.40
2017-06-15T13:17:31.846Z,57.60
2017-06-15T13:19:59.330Z,58.10
2017-06-15T13:22:26.827Z,57.90
2017-06-15T13:24:54.306Z,56.70
2017-06-15T13:27:21.818Z,57.10
2017-06-15T13:29:49.294Z,58.20
2017-06-15T13:32:16.770Z,57.10
2017-06-15T13:34:44.281Z,57.20
2017-06-15T13:37:12.158Z,57.50
2017-06-15T13:39:39.680Z,57.60
2017-06-15T13:42:07.162Z,56.60
2017-06-15T13:44:34.655Z,56.40
2017-06-15T13:47:02.154Z,56.90
2017-06-15T13:49:30.579Z,57.50
2017-06-15T13:51:58.092Z,58.50
2017-06-15T13:54:25.566Z,57.00
2017-06-15T13:56:53.450Z,57.30
2017-06-15T13:59:20.958Z,57.30
2017-06-15T14:01:48.429Z,56.30
2017-06-15T14:04:17.866Z,57.40
2017-06-15T14:06:45.338Z,57.70
2017-06-15T14:09:12.825Z,56.60
2017-06-15T14:11:40.329Z,57.10
2017-06-15T14:14:08.218Z,57.10
2017-06-15T14:16:35.729Z,57.20
2017-06-15T14:19:04.152Z,56.80
2017-06-15T14:21:31.635Z,58.60
2017-06-15T14:23:59.141Z,57.30
2017-06-15T14:26:26.618Z,57.20
2017-06-15T14:28:54.127Z,57.00
2017-06-15T14:31:21.606Z,57.10
2017-06-15T14:33:49.078Z,57.80
2017-06-15T14:36:16.974Z,57.80
2017-06-15T14:38:44.455Z,57.80
2017-06-15T14:41:11.972Z,57.40
2017-06-15T14:43:40.383Z,57.60
2017-06-15T14:46:07.853Z,58.20
2017-06-15T14:48:35.341Z,58.70
2017-06-15T14:51:02.823Z,59.30
2017-06-15T14:53:30.325Z,58.60
2017-06-15T14:55:57.806Z,58.50
2017-06-15T14:58:25.318Z,59.70
2017-06-15T15:00:52.802Z,59.50
2017-06-15T15:03:20.282Z,59.00
2017-06-15T15:05:47.787Z,59.90
2017-06-15T15:08:15.275Z,60.00
2017-06-15T15:10:42.788Z,60.00
2017-06-15T15:13:10.274Z,59.60
2017-06-15T15:15:37.746Z,60.00
2017-06-15T15:18:05.234Z,61.20
2017-06-15T15:20:33.610Z,61.50
2017-06-15T15:23:01.506Z,60.40
2017-06-15T15:25:28.991Z,60.40
2017-06-15T15:27:56.493Z,61.10
2017-06-15T15:30:23.986Z,59.70
2017-06-15T15:32:52.392Z,60.90
2017-06-15T15:35:19.890Z,60.50
2017-06-15T15:37:47.379Z,62.10
2017-06-15T15:40:14.882Z,60.20
2017-06-15T15:42:42.392Z,61.50
2017-06-15T15:45:09.906Z,61.10
2017-06-15T15:47:37.782Z,60.30
2017-06-15T15:50:05.267Z,60.30
2017-06-15T15:52:32.785Z,60.60
2017-06-15T15:55:00.674Z,61.00
2017-06-15T15:57:28.183Z,61.00
2017-06-15T15:59:56.574Z,61.10
2017-06-15T16:02:24.062Z,61.00
2017-06-15T16:04:51.580Z,61.30
2017-06-15T16:07:19.062Z,61.90
2017-06-15T16:09:46.589Z,61.50
2017-06-15T16:12:14.071Z,61.40
2017-06-15T16:14:41.958Z,60.80
2017-06-15T16:17:09.455Z,60.80
2017-06-15T16:19:36.943Z,60.80
2017-06-15T16:22:04.543Z,60.70
2017-06-15T16:24:32.076Z,60.60
2017-06-15T16:26:59.630Z,61.00
2017-06-15T16:29:27.186Z,61.60
2017-06-15T16:31:55.114Z,61.40
2017-06-15T16:34:24.614Z,61.40
2017-06-15T16:36:52.146Z,61.10
2017-06-15T16:39:20.612Z,61.10
2017-06-15T16:41:48.147Z,62.00
2017-06-15T16:44:15.903Z,61.40
2017-06-15T16:46:43.429Z,63.30
2017-06-15T16:49:10.960Z,63.00
2017-06-15T16:51:38.525Z,63.20
2017-06-15T16:54:06.049Z,62.70
2017-06-15T16:56:33.556Z,62.40
2017-06-15T16:59:03.056Z,62.30
2017-06-15T17:01:30.605Z,62.40
2017-06-15T17:03:58.208Z,62.60
2017-06-15T17:06:25.766Z,62.50
2017-06-15T17:08:53.341Z,63.10
2017-06-15T17:11:20.864Z,63.00
2017-06-15T17:13:48.384Z,63.10
2017-06-15T17:16:15.929Z,63.00
2017-06-15T17:18:43.463Z,63.40
2017-06-15T17:21:11.010Z,64.00
2017-06-15T17:23:38.577Z,64.30
2017-06-15T17:26:06.084Z,64.50
2017-06-15T17:28:34.544Z,65.40
2017-06-15T17:31:02.122Z,65.70
2017-06-15T17:33:29.646Z,65.50
2017-06-15T17:35:58.518Z,66.80
2017-06-15T17:38:26.078Z,66.80
2017-06-15T17:40:53.625Z,70.40
2017-06-15T17:43:21.158Z,72.10
2017-06-15T17:45:48.699Z,72.00
2017-06-15T17:48:16.233Z,73.30
2017-06-15T17:50:44.185Z,73.30
2017-06-15T17:53:11.743Z,73.40
2017-06-15T17:55:39.280Z,73.10
2017-06-15T17:58:06.820Z,73.70
2017-06-15T18:00:34.374Z,74.10
2017-06-15T18:03:01.907Z,74.40
2017-06-15T18:05:30.364Z,74.20
2017-06-15T18:07:57.942Z,74.90
2017-06-15T18:10:25.846Z,74.60
2017-06-15T18:12:53.372Z,74.60
2017-06-15T18:15:22.870Z,74.20
2017-06-15T18:17:50.403Z,75.00
2017-06-15T18:20:17.907Z,74.10
2017-06-15T18:22:45.437Z,74.30
2017-06-15T18:25:13.396Z,73.30
2017-06-15T18:27:40.979Z,73.30
2017-06-15T18:30:08.495Z,72.40
2017-06-15T18:32:36.048Z,72.10
2017-06-15T18:35:03.563Z,71.80
2017-06-15T18:37:31.098Z,71.60
2017-06-15T18:39:58.598Z,71.60
2017-06-15T18:42:26.121Z,71.70
2017-06-15T18:44:54.084Z,71.70
2017-06-15T18:47:21.651Z,71.70
2017-06-15T18:49:49.207Z,71.60
2017-06-15T18:52:16.734Z,71.70
2017-06-15T18:54:44.250Z,71.40
2017-06-15T18:57:11.780Z,71.50
2017-06-15T18:59:39.345Z,71.60
2017-06-15T19:02:06.894Z,71.30
2017-06-15T19:04:34.454Z,71.60
2017-06-15T19:07:02.021Z,71.50
2017-06-15T19:09:29.565Z,71.30
2017-06-15T19:11:57.113Z,70.50
2017-06-15T19:14:24.683Z,71.00
2017-06-15T19:16:52.254Z,71.00
2017-06-15T19:19:19.774Z,70.40
2017-06-15T19:21:48.262Z,70.40
2017-06-15T19:24:15.807Z,70.20
2017-06-15T19:26:43.319Z,70.30
2017-06-15T19:29:10.864Z,70.30
2017-06-15T19:31:38.415Z,70.10
2017-06-15T19:34:05.935Z,70.10
2017-06-15T19:36:33.508Z,70.10
2017-06-15T19:39:01.015Z,70.30
2017-06-15T19:41:28.529Z,70.80
2017-06-15T19:43:58.001Z,70.90
2017-06-15T19:46:26.492Z,70.90
2017-06-15T19:48:55.067Z,71.10
2017-06-15T19:51:22.609Z,71.50
2017-06-15T19:53:50.134Z,71.60
2017-06-15T19:56:17.723Z,72.10
2017-06-15T19:58:45.249Z,72.20
2017-06-15T20:01:13.212Z,72.80
2017-06-15T20:03:41.171Z,73.20
2017-06-15T20:06:08.727Z,73.20
2017-06-15T20:08:36.250Z,73.40
2017-06-15T20:11:03.793Z,73.40
2017-06-15T20:13:31.376Z,73.50
2017-06-15T20:15:58.922Z,73.60
2017-06-15T20:18:26.483Z,73.80
2017-06-15T20:20:55.822Z,74.00
2017-06-15T20:23:26.217Z,74.60
2017-06-15T20:25:53.774Z,74.80
2017-06-15T20:28:21.279Z,75.20
2017-06-15T20:30:48.867Z,75.50
2017-06-15T20:33:22.186Z,75.80
2017-06-15T20:35:49.716Z,76.00
2017-06-15T20:38:17.263Z,76.00
2017-06-15T20:40:45.760Z,76.40
2017-06-15T20:43:13.316Z,76.50
2017-06-15T20:45:40.871Z,76.70
2017-06-15T20:48:09.339Z,77.10
2017-06-15T20:50:37.891Z,77.10
2017-06-15T20:53:05.823Z,77.50
2017-06-15T20:55:33.370Z,77.50
2017-06-15T20:58:00.927Z,77.70
2017-06-15T21:00:29.411Z,77.70
2017-06-15T21:02:56.962Z,77.90
2017-06-15T21:05:24.468Z,78.20
2017-06-15T21:07:51.982Z,78.10
2017-06-15T21:10:19.516Z,77.80
2017-06-15T21:12:47.071Z,77.60
2017-06-15T21:15:14.583Z,77.50
2017-06-15T21:17:42.127Z,77.40
2017-06-15T21:20:09.651Z,77.60
2017-06-15T21:22:37.199Z,77.70
2017-06-15T21:25:04.794Z,77.80
2017-06-15T21:27:32.326Z,77.80
2017-06-15T21:29:59.871Z,77.90
2017-06-15T21:32:27.422Z,77.60
2017-06-15T21:34:54.968Z,77.90
2017-06-15T21:37:22.927Z,77.80
2017-06-15T21:39:50.434Z,77.80
2017-06-15T21:42:17.978Z,77.90
2017-06-15T21:44:45.523Z,77.80
2017-06-15T21:47:13.450Z,77.80
2017-06-15T21:49:40.999Z,77.80
2017-06-15T21:52:08.525Z,78.00
2017-06-15T21:54:36.053Z,78.10
2017-06-15T21:57:03.598Z,78.50
2017-06-15T21:59:31.106Z,78.70
2017-06-15T22:01:58.679Z,79.10
2017-06-15T22:04:26.199Z,79.60
2017-06-15T22:06:53.728Z,79.80
2017-06-15T22:09:21.373Z,79.50
2017-06-15T22:11:48.896Z,80.10
2017-06-15T22:14:16.445Z,80.30
2017-06-15T22:16:44.031Z,80.30
2017-06-15T22:19:11.598Z,79.80
2017-06-15T22:21:39.170Z,79.90
2017-06-15T22:24:06.705Z,79.80
2017-06-15T22:26:34.231Z,79.90
2017-06-15T22:29:02.747Z,80.10
2017-06-15T22:31:31.223Z,80.00
2017-06-15T22:34:00.732Z,80.80
2017-06-15T22:36:28.235Z,80.50
2017-06-15T22:38:55.779Z,80.60
2017-06-15T22:41:23.343Z,79.90
2017-06-15T22:43:50.938Z,80.30
2017-06-15T22:46:18.509Z,80.40
2017-06-15T22:48:46.042Z,80.30
2017-06-15T22:51:13.970Z,79.80
2017-06-15T22:53:41.554Z,79.80
2017-06-15T22:56:09.103Z,80.20
2017-06-15T22:58:36.615Z,80.00
2017-06-15T23:01:04.144Z,80.30
2017-06-15T23:03:43.886Z,79.30
2017-06-15T23:06:11.840Z,79.50
2017-06-15T23:08:39.794Z,79.80
2017-06-15T23:11:07.299Z,79.80
2017-06-15T23:13:36.799Z,80.10
2017-06-15T23:16:04.323Z,80.20
2017-06-15T23:18:31.914Z,80.80
2017-06-15T23:20:59.443Z,80.60
2017-06-15T23:23:26.946Z,81.00
2017-06-15T23:25:54.512Z,81.20
2017-06-15T23:28:22.036Z,81.40
2017-06-15T23:30:49.623Z,81.20
2017-06-15T23:33:17.148Z,81.00
2017-06-15T23:35:44.659Z,81.10
2017-06-15T23:38:12.216Z,80.80
2017-06-15T23:40:39.735Z,80.30
2017-06-15T23:43:07.386Z,79.80
2017-06-15T23:45:34.870Z,76.70
2017-06-15T23:48:02.451Z,76.40
2017-06-15T23:50:29.998Z,75.10
2017-06-15T23:52:57.486Z,74.10
2017-06-15T23:55:25.002Z,73.20
2017-06-15T23:57:52.499Z,71.40
